Time;durP1;ratioP1;P1;durP2;ratioP2;P2;SDS_P1;SDS_P2;PMS_P1;PMS_P2;Temp;Humidity;BMP_temperature;BMP_pressure;BME280_temperature;BME280_humidity;BME280_pressure;Samples;Min_cycle;Max_cycle;Signal;HPM_P1;HPM_P2
2022/06/01 00:00:39;;;;;;;225.52;31.13;;;;;13.10;96118.00;;;;8478379;27;20326;-77
2022/06/01 00:04:42;;;;;;;366.73;35.97;;;;;13.10;96102.00;;;;8438035;28;20229;-79
2022/06/01 00:08:45;;;;;;;560.88;42.05;;;;;13.20;96100.00;;;;8438202;28;20268;-77
2022/06/01 00:12:49;;;;;;;247.77;31.80;;;;;13.20;96106.00;;;;8436579;28;20232;-78
2022/06/01 00:16:56;;;;;;;335.48;33.67;;;;;13.30;96105.00;;;;8442839;27;20250;-80
2022/06/01 00:20:59;;;;;;;593.75;46.35;;;;;13.30;96112.00;;;;8411156;28;20319;-79
2022/06/01 00:25:02;;;;;;;144.85;27.17;;;;;13.30;96112.00;;;;8403792;28;20233;-77
2022/06/01 00:29:06;;;;;;;62.00;23.83;;;;;13.30;96117.00;;;;8401679;28;20307;-77
2022/06/01 00:33:11;;;;;;;237.70;33.77;;;;;13.30;96108.00;;;;8416765;28;20227;-81
2022/06/01 00:37:14;;;;;;;109.05;27.08;;;;;13.30;96118.00;;;;8438498;28;20628;-78
2022/06/01 00:41:18;;;;;;;100.20;26.77;;;;;13.30;96115.00;;;;8434652;27;20234;-84
2022/06/01 00:45:24;;;;;;;52.42;20.77;;;;;13.20;96115.00;;;;8438399;28;20228;-76
2022/06/01 00:49:29;;;;;;;38.50;17.02;;;;;13.10;96115.00;;;;8450456;27;20651;-83
2022/06/01 00:53:35;;;;;;;46.47;18.00;;;;;13.00;96114.00;;;;8439728;28;20685;-83
2022/06/01 00:57:39;;;;;;;38.67;15.35;;;;;12.90;96114.00;;;;8446014;28;20654;-76
2022/06/01 01:01:42;;;;;;;38.50;16.58;;;;;12.80;96107.00;;;;8446940;27;20228;-78
2022/06/01 01:05:49;;;;;;;46.33;17.77;;;;;12.60;96122.00;;;;8474287;27;20244;-81
2022/06/01 01:09:52;;;;;;;38.33;16.27;;;;;12.50;96116.00;;;;8475723;27;20219;-77
2022/06/01 01:13:57;;;;;;;30.25;14.80;;;;;12.40;96126.00;;;;8480733;27;20314;-76
2022/06/01 01:18:02;;;;;;;34.67;16.15;;;;;12.30;96120.00;;;;8484885;27;20309;-76
2022/06/01 01:22:23;;;;;;;37.55;15.57;;;;;12.20;96120.00;;;;8482953;27;20313;-76
2022/06/01 01:26:29;;;;;;;33.20;15.50;;;;;12.10;96117.00;;;;8471866;27;20216;-77
2022/06/01 01:30:48;;;;;;;39.22;15.63;;;;;12.00;96115.00;;;;8483937;27;20221;-79
2022/06/01 01:34:51;;;;;;;45.45;16.58;;;;;12.00;96123.00;;;;8474844;27;20253;-75
2022/06/01 01:38:57;;;;;;;39.08;16.27;;;;;12.00;96126.00;;;;8477427;27;20241;-78
2022/06/01 01:43:06;;;;;;;36.35;17.15;;;;;12.00;96122.00;;;;8458878;27;20309;-79
2022/06/01 01:47:09;;;;;;;35.55;16.70;;;;;12.10;96127.00;;;;8454137;27;20625;-75
2022/06/01 01:51:12;;;;;;;37.83;15.73;;;;;12.00;96124.00;;;;8478474;27;20235;-74
2022/06/01 01:55:26;;;;;;;33.47;15.43;;;;;11.90;96121.00;;;;8474356;27;20223;-73
2022/06/01 01:59:41;;;;;;;36.38;15.15;;;;;11.80;96118.00;;;;8478175;27;20321;-76
2022/06/01 02:04:04;;;;;;;28.85;15.13;;;;;11.80;96118.00;;;;8471982;27;20310;-78
2022/06/01 02:08:14;;;;;;;28.60;14.70;;;;;11.80;96116.00;;;;8473003;27;20305;-82
2022/06/01 02:16:46;;;;;;;37.80;14.77;;;;;11.70;96109.00;;;;8473170;27;20233;-79
2022/06/01 02:20:56;;;;;;;29.63;13.53;;;;;11.60;96111.00;;;;8476153;27;20840;-77
2022/06/01 02:25:01;;;;;;;31.67;13.63;;;;;11.50;96117.00;;;;8477042;27;20321;-80
2022/06/01 02:29:10;;;;;;;30.30;13.70;;;;;11.40;96118.00;;;;8475374;27;20224;-78
2022/06/01 02:33:19;;;;;;;30.30;12.88;;;;;11.30;96128.00;;;;8478305;27;20226;-76
2022/06/01 02:37:23;;;;;;;29.10;13.03;;;;;11.10;96126.00;;;;8481003;27;20309;-79
2022/06/01 02:45:47;;;;;;;63.42;13.63;;;;;11.00;96133.00;;;;8481704;27;20309;-78
2022/06/01 02:49:51;;;;;;;38.20;13.83;;;;;11.00;96140.00;;;;8460968;27;20313;-74
2022/06/01 02:53:55;;;;;;;18.97;11.30;;;;;11.00;96141.00;;;;8472368;27;20617;-79
2022/06/01 02:57:59;;;;;;;28.57;12.37;;;;;11.00;96144.00;;;;8480176;27;20226;-76
2022/06/01 03:02:02;;;;;;;170.90;17.83;;;;;10.90;96149.00;;;;8482415;22;20206;-77
2022/06/01 03:06:08;;;;;;;144.60;17.27;;;;;10.90;96142.00;;;;8461066;27;20221;-76
2022/06/01 03:10:11;;;;;;;328.93;26.67;;;;;10.90;96145.00;;;;8460698;27;20316;-79
2022/06/01 03:14:14;;;;;;;211.80;20.97;;;;;10.90;96144.00;;;;8478203;27;20261;-76
2022/06/01 03:18:18;;;;;;;324.53;25.63;;;;;10.80;96138.00;;;;8474157;27;20317;-77
2022/06/01 03:22:23;;;;;;;416.33;27.17;;;;;10.80;96138.00;;;;8467442;27;20313;-79
2022/06/01 03:26:26;;;;;;;237.80;23.97;;;;;10.60;96144.00;;;;8467103;27;20248;-75
2022/06/01 03:30:30;;;;;;;489.63;31.93;;;;;10.60;96144.00;;;;8467188;27;20237;-77
2022/06/01 03:34:33;;;;;;;154.10;19.30;;;;;10.60;96150.00;;;;8474843;27;20313;-76
2022/06/01 03:38:38;;;;;;;43.27;13.47;;;;;10.60;96154.00;;;;8449648;27;20226;-86
2022/06/01 03:42:41;;;;;;;33.13;12.67;;;;;10.70;96151.00;;;;8472316;27;20236;-77
2022/06/01 03:46:44;;;;;;;146.38;19.50;;;;;10.70;96149.00;;;;8461024;27;20242;-74
2022/06/01 03:50:48;;;;;;;40.80;11.80;;;;;10.80;96163.00;;;;8470204;27;20589;-75
2022/06/01 03:54:52;;;;;;;74.37;19.63;;;;;10.90;96153.00;;;;8472590;27;20226;-73
2022/06/01 03:58:55;;;;;;;79.73;21.50;;;;;11.00;96150.00;;;;8464057;27;20877;-78
2022/06/01 04:02:58;;;;;;;207.27;23.93;;;;;11.10;96159.00;;;;8463598;28;20675;-76
2022/06/01 04:07:02;;;;;;;153.07;19.87;;;;;11.10;96161.00;;;;8402228;27;25236;-78
2022/06/01 04:11:07;;;;;;;333.87;27.17;;;;;11.10;96163.00;;;;8434945;27;20309;-73
2022/06/01 04:15:11;;;;;;;244.73;24.53;;;;;11.20;96157.00;;;;8437227;27;20222;-75
2022/06/01 04:19:14;;;;;;;203.95;22.52;;;;;11.50;96160.00;;;;8438005;28;20237;-74
2022/06/01 04:23:17;;;;;;;149.73;20.60;;;;;11.60;96167.00;;;;8442122;27;21732;-77
2022/06/01 04:27:22;;;;;;;169.00;20.23;;;;;11.90;96165.00;;;;8407782;27;20219;-74
2022/06/01 04:31:26;;;;;;;271.63;26.10;;;;;12.00;96178.00;;;;8448527;27;20222;-74
2022/06/01 04:35:30;;;;;;;222.83;22.90;;;;;12.30;96181.00;;;;8416820;27;20219;-71
2022/06/01 04:39:33;;;;;;;132.65;18.60;;;;;12.60;96182.00;;;;8429390;27;20538;-73
2022/06/01 04:43:38;;;;;;;99.95;18.67;;;;;13.00;96197.00;;;;8441377;27;20230;-73
2022/06/01 04:47:41;;;;;;;213.27;22.13;;;;;13.20;96196.00;;;;8440022;27;20691;-75
2022/06/01 04:51:44;;;;;;;152.05;21.48;;;;;13.30;96193.00;;;;8434719;27;20229;-74
2022/06/01 04:55:48;;;;;;;419.08;31.77;;;;;13.30;96191.00;;;;8442022;27;20838;-74
2022/06/01 04:59:53;;;;;;;190.32;26.10;;;;;13.30;96184.00;;;;8437718;27;20230;-78
2022/06/01 05:03:56;;;;;;;91.22;22.17;;;;;13.40;96187.00;;;;8442872;27;20246;-72
2022/06/01 05:07:59;;;;;;;46.38;20.52;;;;;13.60;96188.00;;;;8444790;27;20311;-78
2022/06/01 05:12:03;;;;;;;51.55;19.30;;;;;13.80;96191.00;;;;8440091;27;20614;-72
2022/06/01 05:16:08;;;;;;;40.00;17.83;;;;;13.80;96191.00;;;;8441192;27;20229;-75
2022/06/01 05:20:13;;;;;;;37.20;18.13;;;;;14.00;96188.00;;;;8446991;28;20240;-73
2022/06/01 05:24:16;;;;;;;34.17;17.73;;;;;14.40;96194.00;;;;8435280;27;20228;-73
2022/06/01 05:28:21;;;;;;;36.20;17.38;;;;;14.70;96201.00;;;;8440614;27;20317;-76
2022/06/01 05:32:26;;;;;;;26.98;14.93;;;;;14.90;96190.00;;;;8442862;27;20686;-73
2022/06/01 05:36:30;;;;;;;27.15;14.25;;;;;14.80;96197.00;;;;8443282;28;20240;-73
2022/06/01 05:40:34;;;;;;;25.20;14.88;;;;;14.70;96199.00;;;;8439431;28;20591;-74
2022/06/01 05:44:37;;;;;;;28.75;15.20;;;;;15.20;96200.00;;;;8408701;27;20249;-76
2022/06/01 05:48:41;;;;;;;25.88;16.13;;;;;15.70;96205.00;;;;8437857;27;20223;-74
2022/06/01 05:52:45;;;;;;;23.35;14.90;;;;;16.40;96207.00;;;;8440589;27;20258;-74
2022/06/01 05:56:48;;;;;;;22.75;14.68;;;;;17.00;96212.00;;;;8438687;27;20215;-74
2022/06/01 06:00:52;;;;;;;19.40;13.43;;;;;17.60;96208.00;;;;8434555;27;22054;-74
2022/06/01 06:04:57;;;;;;;18.13;12.50;;;;;18.30;96211.00;;;;8441213;28;20227;-74
2022/06/01 06:09:03;;;;;;;15.27;10.90;;;;;19.00;96208.00;;;;8441067;27;20309;-72
2022/06/01 06:13:07;;;;;;;12.32;10.50;;;;;19.60;96204.00;;;;8437878;27;20226;-72
2022/06/01 06:17:10;;;;;;;18.45;10.20;;;;;19.70;96202.00;;;;8450050;27;20233;-76
2022/06/01 06:21:15;;;;;;;12.20;9.00;;;;;19.70;96209.00;;;;8445536;27;20231;-79
2022/06/01 06:25:18;;;;;;;12.52;8.98;;;;;20.20;96211.00;;;;8439929;27;20234;-77
2022/06/01 06:29:21;;;;;;;11.68;9.20;;;;;20.70;96203.00;;;;8441461;28;20233;-77
2022/06/01 06:33:24;;;;;;;9.38;8.20;;;;;21.30;96210.00;;;;8440405;28;20232;-79
2022/06/01 06:37:29;;;;;;;8.70;7.78;;;;;21.60;96203.00;;;;8440731;27;20699;-75
2022/06/01 06:41:32;;;;;;;9.77;7.93;;;;;21.80;96205.00;;;;8439293;27;20863;-71
2022/06/01 06:45:35;;;;;;;9.27;7.68;;;;;22.10;96207.00;;;;8438593;28;20219;-80
2022/06/01 06:49:39;;;;;;;8.50;7.38;;;;;22.40;96213.00;;;;8438271;28;20223;-79
2022/06/01 06:53:44;;;;;;;8.02;7.15;;;;;22.60;96218.00;;;;8441681;28;20236;-75
2022/06/01 06:57:47;;;;;;;12.00;7.50;;;;;22.80;96213.00;;;;8439439;27;20690;-72
2022/06/01 07:01:50;;;;;;;7.78;6.35;;;;;22.90;96216.00;;;;8442464;27;20318;-72
2022/06/01 07:06:12;;;;;;;6.93;6.20;;;;;23.30;96217.00;;;;8439200;27;20215;-70
2022/06/01 07:10:18;;;;;;;8.13;5.30;;;;;23.60;96219.00;;;;8436983;27;20245;-73
2022/06/01 07:14:22;;;;;;;7.95;5.63;;;;;23.90;96218.00;;;;8441259;28;20233;-74
2022/06/01 07:18:25;;;;;;;8.40;5.07;;;;;23.90;96229.00;;;;8441321;27;20229;-73
2022/06/01 07:22:28;;;;;;;7.20;4.70;;;;;24.20;96223.00;;;;8436950;27;20295;-73
2022/06/01 07:26:34;;;;;;;7.90;4.20;;;;;24.40;96223.00;;;;8418972;28;20757;-71
2022/06/01 07:30:38;;;;;;;6.82;3.95;;;;;24.40;96231.00;;;;8426986;27;20687;-79
2022/06/01 07:34:41;;;;;;;5.00;3.58;;;;;24.10;96230.00;;;;8431884;27;20236;-74
2022/06/01 07:43:07;;;;;;;4.93;3.95;;;;;24.50;96241.00;;;;8439345;27;20234;-72
2022/06/01 07:47:11;;;;;;;4.45;3.50;;;;;25.00;96237.00;;;;8440713;28;20721;-77
2022/06/01 07:51:35;;;;;;;3.50;2.92;;;;;25.20;96241.00;;;;8445571;28;20230;-77
2022/06/01 07:55:41;;;;;;;3.00;2.78;;;;;25.40;96237.00;;;;8440228;28;20316;-74
2022/06/01 07:59:45;;;;;;;5.13;3.25;;;;;25.70;96240.00;;;;8443561;28;20214;-73
2022/06/01 08:03:48;;;;;;;4.38;3.25;;;;;25.60;96235.00;;;;8439176;28;20230;-73
2022/06/01 08:07:52;;;;;;;3.15;2.70;;;;;25.30;96240.00;;;;8444626;28;20230;-71
2022/06/01 08:16:23;;;;;;;7.25;3.25;;;;;25.80;96229.00;;;;8440352;28;20218;-75
2022/06/01 08:20:28;;;;;;;4.07;2.67;;;;;26.50;96231.00;;;;8436603;28;20230;-72
2022/06/01 08:24:32;;;;;;;2.70;2.42;;;;;26.60;96235.00;;;;8427551;28;20265;-75
2022/06/01 08:28:35;;;;;;;2.47;2.25;;;;;26.80;96234.00;;;;8431443;28;20555;-81
2022/06/01 08:32:40;;;;;;;5.72;2.53;;;;;27.50;96232.00;;;;8435811;28;20237;-72
2022/06/01 08:36:43;;;;;;;5.60;2.35;;;;;28.00;96230.00;;;;8426289;28;20219;-72
2022/06/01 08:40:57;;;;;;;3.17;2.25;;;;;28.30;96222.00;;;;8435394;28;20251;-73
2022/06/01 08:50:27;;;;;;;1.45;1.45;;;;;29.10;96227.00;;;;8431710;28;20255;-71
2022/06/01 08:54:31;;;;;;;2.40;1.70;;;;;29.20;96240.00;;;;8420263;28;20610;-75
2022/06/01 08:58:43;;;;;;;2.88;1.77;;;;;29.30;96234.00;;;;8440041;28;20618;-72
2022/06/01 09:02:58;;;;;;;5.60;1.83;;;;;29.30;96235.00;;;;8435145;27;20246;-70
2022/06/01 09:07:18;;;;;;;4.07;2.22;;;;;29.30;96241.00;;;;8428482;28;20228;-73
2022/06/01 09:11:28;;;;;;;2.35;2.15;;;;;29.60;96246.00;;;;8437890;27;20939;-75
2022/06/01 09:15:41;;;;;;;2.83;2.28;;;;;29.30;96228.00;;;;8444262;27;20630;-76
2022/06/01 09:24:07;;;;;;;1.92;1.83;;;;;29.90;96237.00;;;;8440026;27;20760;-77
2022/06/01 09:28:20;;;;;;;2.00;1.80;;;;;29.80;96232.00;;;;8444046;27;20602;-76
2022/06/01 09:32:29;;;;;;;4.50;1.80;;;;;30.30;96235.00;;;;8444861;28;20222;-76
2022/06/01 09:36:32;;;;;;;5.82;2.15;;;;;30.40;96244.00;;;;8446835;27;20237;-76
2022/06/01 09:40:37;;;;;;;2.03;1.67;;;;;31.00;96248.00;;;;8439484;27;20670;-76
2022/06/01 09:44:44;;;;;;;2.25;1.92;;;;;31.40;96236.00;;;;8439502;27;20233;-77
2022/06/01 09:48:48;;;;;;;3.90;1.80;;;;;31.40;96240.00;;;;8437074;27;20322;-77
2022/06/01 09:52:56;;;;;;;3.30;2.13;;;;;31.20;96237.00;;;;8436662;28;20322;-76
2022/06/01 09:57:17;;;;;;;2.80;1.80;;;;;31.50;96233.00;;;;8431000;27;20229;-76
2022/06/01 10:10:07;;;;;;;2.17;1.95;;;;;32.60;96229.00;;;;8447094;28;20253;-77
2022/06/01 10:14:18;;;;;;;1.60;1.55;;;;;31.50;96231.00;;;;8438326;27;20613;-78
2022/06/01 10:18:27;;;;;;;1.90;1.80;;;;;30.30;96233.00;;;;8439211;28;20310;-77
2022/06/01 10:22:36;;;;;;;2.05;1.90;;;;;30.70;96239.00;;;;8448061;27;20801;-76
2022/06/01 10:26:44;;;;;;;2.28;1.80;;;;;29.80;96230.00;;;;8434413;28;20317;-78
2022/06/01 10:30:52;;;;;;;2.35;1.88;;;;;30.30;96234.00;;;;8441357;28;20257;-76
2022/06/01 10:35:05;;;;;;;2.30;1.88;;;;;30.20;96245.00;;;;8430447;27;20639;-77
2022/06/01 10:39:12;;;;;;;3.40;1.98;;;;;30.20;96215.00;;;;8424972;28;20930;-76
2022/06/01 10:43:28;;;;;;;3.45;1.70;;;;;29.70;96219.00;;;;8436684;28;20230;-77
2022/06/01 10:47:39;;;;;;;1.98;1.88;;;;;29.40;96211.00;;;;8424871;27;20254;-76
2022/06/01 10:51:43;;;;;;;2.25;1.92;;;;;30.10;96205.00;;;;8431351;27;20218;-75
2022/06/01 10:55:48;;;;;;;2.70;1.80;;;;;30.50;96200.00;;;;8436036;28;20259;-77
2022/06/01 10:59:52;;;;;;;2.47;1.67;;;;;31.10;96205.00;;;;8438955;27;20687;-75
2022/06/01 11:04:18;;;;;;;2.72;1.45;;;;;30.20;96207.00;;;;8446381;28;20291;-75
2022/06/01 11:08:35;;;;;;;1.92;1.70;;;;;30.90;96210.00;;;;8447190;28;20222;-76
2022/06/01 11:12:49;;;;;;;1.73;1.63;;;;;30.00;96202.00;;;;8438971;28;20345;-75
2022/06/01 11:16:58;;;;;;;1.92;1.60;;;;;29.10;96204.00;;;;8440801;28;20231;-76
2022/06/01 11:21:14;;;;;;;5.65;1.75;;;;;28.90;96202.00;;;;8440362;28;20808;-75
2022/06/01 11:25:23;;;;;;;1.35;1.30;;;;;28.60;96202.00;;;;8441461;28;20252;-74
2022/06/01 11:29:44;;;;;;;1.60;1.50;;;;;28.50;96197.00;;;;8440398;28;20226;-75
2022/06/01 11:33:53;;;;;;;2.25;1.50;;;;;28.20;96191.00;;;;8441461;28;20575;-73
2022/06/01 11:38:03;;;;;;;1.50;1.40;;;;;29.60;96188.00;;;;8440356;27;20227;-73
2022/06/01 11:42:12;;;;;;;3.90;1.58;;;;;30.40;96180.00;;;;8435789;27;20226;-73
2022/06/01 11:46:21;;;;;;;1.40;1.40;;;;;30.20;96177.00;;;;8432434;28;20223;-74
2022/06/01 11:50:44;;;;;;;1.58;1.48;;;;;29.10;96173.00;;;;8436093;28;20694;-74
2022/06/01 11:54:56;;;;;;;1.92;1.70;;;;;28.50;96170.00;;;;8435292;28;20222;-77
2022/06/01 11:59:20;;;;;;;3.05;1.35;;;;;28.40;96185.00;;;;8438200;28;20313;-73
2022/06/01 12:03:37;;;;;;;4.28;1.55;;;;;27.70;96172.00;;;;8443744;28;20372;-76
2022/06/01 12:07:46;;;;;;;2.67;1.50;;;;;27.30;96169.00;;;;8431551;28;20310;-75
2022/06/01 12:11:52;;;;;;;1.73;1.63;;;;;27.30;96177.00;;;;8447229;28;20439;-74
2022/06/01 12:16:20;;;;;;;2.42;1.58;;;;;27.80;96173.00;;;;8442925;28;20232;-74
2022/06/01 12:20:50;;;;;;;2.28;1.60;;;;;28.90;96158.00;;;;8441826;28;20871;-73
2022/06/01 12:29:30;;;;;;;1.88;1.70;;;;;29.80;96156.00;;;;8442874;28;20219;-71
2022/06/01 12:33:34;;;;;;;1.90;1.70;;;;;30.00;96142.00;;;;8444206;27;20301;-71
2022/06/01 12:37:41;;;;;;;1.60;1.50;;;;;29.90;96138.00;;;;8444740;27;20699;-72
2022/06/01 12:41:47;;;;;;;1.70;1.60;;;;;29.50;96136.00;;;;8443166;28;20313;-73
2022/06/01 12:45:54;;;;;;;3.40;1.60;;;;;29.50;96138.00;;;;8438058;27;20244;-71
2022/06/01 12:49:57;;;;;;;2.90;1.70;;;;;29.30;96149.00;;;;8442410;27;20223;-75
2022/06/01 12:54:00;;;;;;;1.60;1.50;;;;;28.70;96145.00;;;;8449647;27;20635;-74
2022/06/01 12:58:12;;;;;;;1.83;1.73;;;;;28.30;96146.00;;;;8443972;27;20638;-73
2022/06/01 13:02:18;;;;;;;2.05;1.52;;;;;28.50;96137.00;;;;8442043;27;20246;-72
2022/06/01 13:06:26;;;;;;;1.85;1.60;;;;;28.40;96143.00;;;;8431893;28;20671;-72
2022/06/01 13:10:31;;;;;;;1.70;1.60;;;;;28.40;96144.00;;;;8434314;28;20234;-71
2022/06/01 13:14:36;;;;;;;6.38;1.70;;;;;28.30;96126.00;;;;8442175;27;20269;-70
2022/06/01 13:18:43;;;;;;;1.73;1.40;;;;;28.40;96137.00;;;;8439998;28;20639;-68
2022/06/01 13:22:50;;;;;;;1.90;1.65;;;;;28.50;96139.00;;;;8440832;27;20225;-72
2022/06/01 13:26:55;;;;;;;1.90;1.48;;;;;28.40;96135.00;;;;8433902;27;20306;-71
2022/06/01 13:30:59;;;;;;;1.40;1.40;;;;;29.00;96135.00;;;;8432255;27;20232;-70
2022/06/01 13:35:18;;;;;;;2.13;1.95;;;;;30.00;96127.00;;;;8440266;28;20568;-72
2022/06/01 13:39:31;;;;;;;2.97;1.77;;;;;30.80;96136.00;;;;8442294;27;20241;-75
2022/06/01 13:43:41;;;;;;;1.35;1.25;;;;;31.50;96127.00;;;;8423606;27;20254;-69
2022/06/01 13:47:51;;;;;;;1.63;1.52;;;;;31.70;96133.00;;;;8436829;28;20228;-72
2022/06/01 13:52:00;;;;;;;1.70;1.60;;;;;31.30;96135.00;;;;8438975;28;20925;-69
2022/06/01 13:56:05;;;;;;;1.98;1.40;;;;;30.60;96128.00;;;;8440362;27;20294;-69
2022/06/01 14:00:20;;;;;;;2.13;1.73;;;;;30.00;96125.00;;;;8438757;28;20229;-69
2022/06/01 14:04:30;;;;;;;2.03;1.50;;;;;30.30;96124.00;;;;8438422;28;20284;-71
2022/06/01 14:08:37;;;;;;;2.58;1.55;;;;;30.40;96130.00;;;;8441279;27;20225;-71
2022/06/01 14:12:44;;;;;;;1.50;1.40;;;;;29.80;96131.00;;;;8441213;28;20225;-68
2022/06/01 14:16:51;;;;;;;1.73;1.52;;;;;29.70;96136.00;;;;8442524;27;20793;-70
2022/06/01 14:20:54;;;;;;;2.67;1.20;;;;;29.50;96136.00;;;;8447773;27;20242;-71
2022/06/01 14:29:16;;;;;;;2.45;1.88;;;;;29.00;96130.00;;;;8423828;28;20215;-66
2022/06/01 14:33:19;;;;;;;1.50;1.40;;;;;28.60;96133.00;;;;8439625;27;20244;-67
2022/06/01 14:37:22;;;;;;;3.08;1.38;;;;;28.50;96130.00;;;;8433722;28;20222;-69
2022/06/01 14:41:29;;;;;;;2.92;1.73;;;;;28.40;96121.00;;;;8437885;27;20230;-66
2022/06/01 14:45:34;;;;;;;6.55;1.70;;;;;28.20;96131.00;;;;8429934;28;20235;-66
2022/06/01 14:49:37;;;;;;;3.53;1.70;;;;;28.30;96138.00;;;;8427721;28;20226;-68
2022/06/01 14:53:42;;;;;;;2.97;1.67;;;;;28.90;96129.00;;;;8439357;27;20291;-67
2022/06/01 14:57:47;;;;;;;1.95;1.70;;;;;29.30;96131.00;;;;8431131;27;20305;-68
2022/06/01 15:01:54;;;;;;;1.67;1.58;;;;;29.10;96136.00;;;;8431294;27;20265;-66
2022/06/01 15:05:59;;;;;;;1.90;1.70;;;;;28.70;96123.00;;;;8437180;28;20260;-66
2022/06/01 15:10:02;;;;;;;1.63;1.42;;;;;28.80;96133.00;;;;8438898;27;20214;-67
2022/06/01 15:14:10;;;;;;;1.88;1.52;;;;;28.20;96132.00;;;;8431798;28;20384;-68
2022/06/01 15:18:14;;;;;;;1.90;1.80;;;;;27.90;96128.00;;;;8431405;28;20959;-70
2022/06/01 15:22:17;;;;;;;1.60;1.50;;;;;28.00;96115.00;;;;8426976;28;20298;-68
2022/06/01 15:26:21;;;;;;;2.03;1.55;;;;;28.20;96114.00;;;;8437441;27;20245;-66
2022/06/01 15:43:28;;;;;;;5.38;1.73;;;;;28.90;96100.00;;;;8441571;27;20635;-66
2022/06/01 15:47:39;;;;;;;5.68;1.70;;;;;28.90;96106.00;;;;8433965;28;20242;-65
2022/06/01 15:51:48;;;;;;;5.82;1.40;;;;;28.50;96089.00;;;;8414355;28;20218;-68
2022/06/01 15:55:52;;;;;;;1.40;1.35;;;;;27.90;96094.00;;;;8436931;28;20529;-67
2022/06/01 15:59:55;;;;;;;2.15;1.50;;;;;27.60;96093.00;;;;8433002;28;20237;-66
2022/06/01 16:04:00;;;;;;;3.17;1.35;;;;;27.50;96099.00;;;;8432822;28;20314;-66
2022/06/01 16:08:23;;;;;;;1.55;1.45;;;;;27.40;96101.00;;;;8420403;28;20234;-67
2022/06/01 16:12:26;;;;;;;1.70;1.60;;;;;27.30;96109.00;;;;8435603;28;20309;-66
2022/06/01 16:16:32;;;;;;;1.90;1.50;;;;;27.30;96106.00;;;;8410047;28;20317;-65
2022/06/01 16:20:37;;;;;;;2.42;1.35;;;;;27.00;96108.00;;;;8411607;28;20234;-66
2022/06/01 16:24:40;;;;;;;4.78;1.48;;;;;26.90;96112.00;;;;8443782;28;20230;-65
2022/06/01 16:28:43;;;;;;;1.40;1.40;;;;;26.90;96103.00;;;;8443179;28;20333;-67
2022/06/01 16:32:48;;;;;;;3.95;1.40;;;;;26.80;96100.00;;;;8434464;28;20302;-65
2022/06/01 16:36:53;;;;;;;1.67;1.50;;;;;26.40;96108.00;;;;8437216;28;20229;-66
2022/06/01 16:40:58;;;;;;;6.10;1.50;;;;;26.20;96111.00;;;;8439001;28;20238;-67
2022/06/01 16:45:01;;;;;;;3.00;1.50;;;;;26.20;96115.00;;;;8439336;28;20230;-66
2022/06/01 16:49:07;;;;;;;1.80;1.70;;;;;25.90;96106.00;;;;8410242;28;20866;-66
2022/06/01 16:53:12;;;;;;;2.22;1.80;;;;;25.50;96113.00;;;;8425873;28;20930;-65
2022/06/01 16:57:17;;;;;;;1.70;1.65;;;;;25.10;96116.00;;;;8411853;28;20322;-65
2022/06/01 17:01:24;;;;;;;3.22;1.70;;;;;24.80;96113.00;;;;8420149;28;20903;-65
2022/06/01 17:05:27;;;;;;;4.63;1.60;;;;;24.70;96115.00;;;;8439407;28;20227;-65
2022/06/01 17:09:40;;;;;;;2.08;1.50;;;;;24.50;96119.00;;;;8433623;28;20235;-66
2022/06/01 17:13:44;;;;;;;1.75;1.65;;;;;24.40;96111.00;;;;8419659;28;20223;-65
2022/06/01 17:17:50;;;;;;;1.48;1.48;;;;;24.20;96107.00;;;;8411507;27;20318;-65
2022/06/01 17:21:54;;;;;;;1.55;1.45;;;;;24.10;96110.00;;;;8419741;28;20230;-66
2022/06/01 17:25:58;;;;;;;1.70;1.60;;;;;24.00;96116.00;;;;8406399;27;20231;-66
2022/06/01 17:30:01;;;;;;;1.40;1.40;;;;;23.90;96112.00;;;;8409861;28;20313;-66
2022/06/01 17:34:06;;;;;;;1.50;1.50;;;;;23.60;96122.00;;;;8426628;28;20765;-64
2022/06/01 17:38:09;;;;;;;1.40;1.30;;;;;23.40;96132.00;;;;8425501;27;20218;-66
2022/06/01 17:42:14;;;;;;;5.53;2.10;;;;;23.10;96136.00;;;;8422775;28;20230;-68
2022/06/01 17:46:19;;;;;;;2.15;1.77;;;;;22.80;96144.00;;;;8420731;28;20718;-65
2022/06/01 17:50:23;;;;;;;2.45;1.50;;;;;22.60;96151.00;;;;8403205;27;20675;-65
2022/06/01 17:54:26;;;;;;;2.05;1.60;;;;;22.30;96149.00;;;;8428533;27;20223;-67
2022/06/01 17:58:31;;;;;;;1.85;1.60;;;;;22.00;96157.00;;;;8354239;27;20287;-65
2022/06/01 18:02:34;;;;;;;3.30;1.50;;;;;21.70;96162.00;;;;8407081;28;21007;-66
2022/06/01 18:06:39;;;;;;;5.10;1.50;;;;;21.50;96157.00;;;;8366310;27;20249;-66
2022/06/01 18:10:42;;;;;;;1.65;1.45;;;;;21.20;96164.00;;;;8387332;27;20309;-66
2022/06/01 18:14:47;;;;;;;2.20;1.80;;;;;20.90;96159.00;;;;8405007;27;20223;-66
2022/06/01 18:18:50;;;;;;;3.47;2.00;;;;;20.60;96162.00;;;;8412937;27;20314;-65
2022/06/01 18:22:54;;;;;;;2.63;1.65;;;;;20.40;96159.00;;;;8394553;27;20218;-65
2022/06/01 18:26:57;;;;;;;3.90;1.73;;;;;20.20;96180.00;;;;8434970;28;20872;-66
2022/06/01 18:31:09;;;;;;;3.05;1.80;;;;;20.00;96183.00;;;;8410870;27;20684;-65
2022/06/01 18:35:13;;;;;;;1.95;1.80;;;;;19.80;96188.00;;;;8407342;27;20659;-65
2022/06/01 18:39:16;;;;;;;3.60;2.00;;;;;19.60;96191.00;;;;8406585;27;20225;-66
2022/06/01 18:43:22;;;;;;;2.72;1.90;;;;;19.40;96193.00;;;;8382155;27;20222;-65
2022/06/01 18:47:26;;;;;;;2.20;2.00;;;;;19.20;96198.00;;;;8409505;28;20310;-65
2022/06/01 18:51:33;;;;;;;2.80;1.92;;;;;19.00;96197.00;;;;8354194;27;20637;-65
2022/06/01 18:55:49;;;;;;;5.72;2.20;;;;;18.90;96197.00;;;;8424607;27;20631;-65
2022/06/01 19:04:14;;;;;;;4.10;1.92;;;;;18.50;96206.00;;;;8410442;27;21132;-64
2022/06/01 19:08:27;;;;;;;5.43;2.42;;;;;18.40;96210.00;;;;8415195;27;20317;-65
2022/06/01 19:12:31;;;;;;;4.80;2.30;;;;;18.30;96214.00;;;;8414945;28;20242;-67
2022/06/01 19:16:38;;;;;;;7.25;2.33;;;;;18.20;96227.00;;;;8386130;27;20249;-65
2022/06/01 19:20:44;;;;;;;7.03;2.03;;;;;18.10;96215.00;;;;8409296;28;20214;-66
2022/06/01 19:24:47;;;;;;;1.95;1.83;;;;;17.90;96234.00;;;;8399965;28;20926;-65
2022/06/01 19:28:51;;;;;;;2.92;1.95;;;;;17.80;96233.00;;;;8380667;28;20253;-65
2022/06/01 19:32:55;;;;;;;2.10;1.92;;;;;17.70;96239.00;;;;8388332;28;20248;-65
2022/06/01 19:45:41;;;;;;;2.55;1.80;;;;;17.40;96258.00;;;;8418595;28;20222;-67
2022/06/01 19:49:45;;;;;;;2.25;2.05;;;;;17.30;96260.00;;;;8412268;28;20350;-66
2022/06/01 19:53:52;;;;;;;4.00;2.60;;;;;17.20;96264.00;;;;8409353;28;20241;-66
2022/06/01 19:57:55;;;;;;;3.13;2.50;;;;;17.10;96274.00;;;;8414433;28;20694;-66
2022/06/01 20:01:59;;;;;;;4.00;2.10;;;;;17.00;96283.00;;;;8398636;28;20262;-66
2022/06/01 20:06:03;;;;;;;2.58;2.35;;;;;17.00;96280.00;;;;8426817;28;20227;-65
2022/06/01 20:10:09;;;;;;;9.32;2.42;;;;;17.00;96287.00;;;;8407144;28;20313;-65
2022/06/01 20:14:12;;;;;;;2.35;2.15;;;;;16.90;96297.00;;;;8405486;28;20233;-66
2022/06/01 20:18:16;;;;;;;2.40;2.20;;;;;16.90;96292.00;;;;8411202;28;20241;-66
2022/06/01 20:22:22;;;;;;;3.55;2.20;;;;;16.80;96290.00;;;;8412717;28;20963;-66
2022/06/01 20:26:27;;;;;;;5.25;2.50;;;;;16.80;96293.00;;;;8424041;28;20249;-65
2022/06/01 20:30:31;;;;;;;4.15;2.20;;;;;16.70;96292.00;;;;8393801;28;20318;-66
2022/06/01 20:34:35;;;;;;;2.83;2.60;;;;;16.70;96295.00;;;;8440153;28;20246;-65
2022/06/01 20:38:38;;;;;;;6.95;2.80;;;;;16.60;96289.00;;;;8384095;28;20253;-65
2022/06/01 20:42:43;;;;;;;4.65;2.60;;;;;16.60;96293.00;;;;8404294;28;20229;-66
2022/06/01 20:46:46;;;;;;;2.88;2.67;;;;;16.60;96298.00;;;;8369258;28;20243;-66
2022/06/01 20:50:49;;;;;;;4.15;2.75;;;;;16.50;96301.00;;;;8378486;28;20226;-67
2022/06/01 20:54:52;;;;;;;3.22;2.88;;;;;16.50;96298.00;;;;8399898;28;20218;-66
2022/06/01 20:58:57;;;;;;;4.75;3.17;;;;;16.40;96305.00;;;;8424727;27;20234;-67
2022/06/01 21:03:00;;;;;;;3.70;3.40;;;;;16.30;96310.00;;;;8415261;27;20322;-67
2022/06/01 21:07:04;;;;;;;3.83;2.90;;;;;16.20;96309.00;;;;8422621;27;20782;-67
2022/06/01 21:11:08;;;;;;;3.45;2.78;;;;;16.20;96308.00;;;;8409369;28;20218;-66
2022/06/01 21:15:13;;;;;;;5.07;3.20;;;;;16.10;96310.00;;;;8430198;28;20309;-66
2022/06/01 21:19:21;;;;;;;3.30;3.00;;;;;16.10;96308.00;;;;8423996;27;20240;-66
2022/06/01 21:23:24;;;;;;;3.95;3.33;;;;;16.00;96309.00;;;;8351842;27;20223;-67
2022/06/01 21:27:27;;;;;;;3.65;3.25;;;;;16.00;96319.00;;;;8424898;27;20675;-66
2022/06/01 21:31:31;;;;;;;5.32;2.85;;;;;15.90;96324.00;;;;8414732;27;20748;-67